createdAt,value
2019-01-30T00:01:00.351Z,174.57
2019-01-30T00:02:04.850Z,214.32
2019-01-30T00:03:09.193Z,154.32
2019-01-30T00:04:13.466Z,208.68
2019-01-30T00:05:17.740Z,165.10
2019-01-30T00:06:22.022Z,182.17
2019-01-30T00:07:26.366Z,168.00
2019-01-30T00:08:30.634Z,161.37
2019-01-30T00:09:34.902Z,164.82
2019-01-30T00:10:39.241Z,159.12
2019-01-30T00:11:43.517Z,154.55
2019-01-30T00:12:47.769Z,150.22
2019-01-30T00:13:52.034Z,147.55
2019-01-30T00:14:56.298Z,166.30
2019-01-30T00:16:00.642Z,172.40
2019-01-30T00:17:04.981Z,167.35
2019-01-30T00:18:09.247Z,181.02
2019-01-30T00:19:13.509Z,182.65
2019-01-30T00:20:17.771Z,159.25
2019-01-30T00:21:22.051Z,205.05
2019-01-30T00:22:26.331Z,198.80
2019-01-30T00:23:30.586Z,156.95
2019-01-30T00:24:35.000Z,230.18
2019-01-30T00:25:39.370Z,181.32
2019-01-30T00:26:43.638Z,165.90
2019-01-30T00:27:47.979Z,145.53
2019-01-30T00:28:52.238Z,172.72
2019-01-30T00:30:03.806Z,195.72
2019-01-30T00:31:02.494Z,162.57
2019-01-30T00:32:06.791Z,144.85
2019-01-30T00:33:11.058Z,168.25
2019-01-30T00:34:15.318Z,150.55
2019-01-30T00:35:19.653Z,143.87
2019-01-30T00:36:24.065Z,153.97
2019-01-30T00:37:28.342Z,143.45
2019-01-30T00:38:32.603Z,151.65
2019-01-30T00:39:36.935Z,155.60
2019-01-30T00:40:41.215Z,166.62
2019-01-30T00:41:45.489Z,163.25
2019-01-30T00:42:50.011Z,160.40
2019-01-30T00:43:54.267Z,162.62
2019-01-30T00:44:58.534Z,160.35
2019-01-30T00:46:02.883Z,153.82
2019-01-30T00:47:15.793Z,150.85
2019-01-30T00:48:13.271Z,153.38
2019-01-30T00:49:17.524Z,169.95
2019-01-30T00:50:22.564Z,163.97
2019-01-30T00:51:26.834Z,166.50
2019-01-30T00:52:31.112Z,186.15
2019-01-30T00:53:35.442Z,160.10
2019-01-30T00:54:39.704Z,156.22
2019-01-30T00:55:43.983Z,171.60
2019-01-30T00:56:48.321Z,197.95
2019-01-30T00:57:52.606Z,161.70
2019-01-30T00:58:56.871Z,188.30
2019-01-30T01:00:01.130Z,234.37
2019-01-30T01:01:06.265Z,164.25
2019-01-30T01:02:10.614Z,173.28
2019-01-30T01:03:14.891Z,181.22
2019-01-30T01:04:19.227Z,212.48
2019-01-30T01:05:23.641Z,158.90
2019-01-30T01:06:27.979Z,227.30
2019-01-30T01:07:32.393Z,197.45
2019-01-30T01:08:36.668Z,187.57
2019-01-30T01:09:40.926Z,167.35
2019-01-30T01:10:45.278Z,161.65
2019-01-30T01:11:49.550Z,142.70
2019-01-30T01:12:53.882Z,155.20
2019-01-30T01:13:58.138Z,169.55
2019-01-30T01:15:02.678Z,160.50
2019-01-30T01:16:06.938Z,150.87
2019-01-30T01:17:11.285Z,143.40
2019-01-30T01:18:15.569Z,155.95
2019-01-30T01:19:19.848Z,167.50
2019-01-30T01:20:24.191Z,160.85
2019-01-30T01:21:28.534Z,160.55
2019-01-30T01:22:32.786Z,164.85
2019-01-30T01:23:37.067Z,149.45
2019-01-30T01:24:41.350Z,153.72
2019-01-30T01:25:45.626Z,183.20
2019-01-30T01:26:49.903Z,153.90
2019-01-30T01:27:54.173Z,148.30
2019-01-30T01:28:58.429Z,150.30
2019-01-30T01:30:02.771Z,155.45
2019-01-30T01:31:07.122Z,145.28
2019-01-30T01:32:11.382Z,137.85
2019-01-30T01:33:15.666Z,167.50
2019-01-30T01:34:20.010Z,149.27
2019-01-30T01:35:24.422Z,200.75
2019-01-30T01:36:28.675Z,252.72
2019-01-30T01:37:32.938Z,191.47
2019-01-30T01:38:37.226Z,170.62
2019-01-30T01:39:41.491Z,197.22
2019-01-30T01:40:45.759Z,168.02
2019-01-30T01:41:50.022Z,181.05
2019-01-30T01:42:54.362Z,141.53
2019-01-30T01:43:58.652Z,163.55
2019-01-30T01:45:03.002Z,143.55
2019-01-30T01:46:07.327Z,140.62
2019-01-30T01:47:11.660Z,127.35
2019-01-30T01:48:16.142Z,125.20
2019-01-30T01:49:20.402Z,132.45
2019-01-30T01:50:24.687Z,119.20
2019-01-30T01:51:28.976Z,128.50
2019-01-30T01:52:33.234Z,121.53
2019-01-30T01:53:37.506Z,113.45
2019-01-30T01:54:41.795Z,115.12
2019-01-30T01:55:46.050Z,113.72
2019-01-30T01:56:50.316Z,128.00
2019-01-30T01:57:54.575Z,125.38
2019-01-30T01:58:58.943Z,125.38
2019-01-30T02:00:03.315Z,123.60
2019-01-30T02:01:07.653Z,121.72
2019-01-30T02:02:11.916Z,130.80
2019-01-30T02:03:16.262Z,125.35
2019-01-30T02:04:20.594Z,129.25
2019-01-30T02:05:25.155Z,115.20
2019-01-30T02:06:29.418Z,121.60
2019-01-30T02:07:33.678Z,117.30
2019-01-30T02:08:37.960Z,127.55
2019-01-30T02:09:42.225Z,124.00
2019-01-30T02:10:46.581Z,116.57
2019-01-30T02:11:50.845Z,117.35
2019-01-30T02:12:55.257Z,113.65
2019-01-30T02:13:59.542Z,118.57
2019-01-30T02:15:04.931Z,107.85
2019-01-30T02:16:09.269Z,112.20
2019-01-30T02:17:13.547Z,101.12
2019-01-30T02:18:17.826Z,101.35
2019-01-30T02:19:22.104Z,102.10
2019-01-30T02:20:28.911Z,107.67
2019-01-30T02:21:33.180Z,101.33
2019-01-30T02:22:37.460Z,106.43
2019-01-30T02:23:41.813Z,106.30
2019-01-30T02:24:46.086Z,102.27
2019-01-30T02:25:50.350Z,116.42
2019-01-30T02:26:54.621Z,109.30
2019-01-30T02:27:58.963Z,97.80
2019-01-30T02:29:03.320Z,112.90
2019-01-30T02:30:11.643Z,105.17
2019-01-30T02:31:15.918Z,117.10
2019-01-30T02:32:20.264Z,101.33
2019-01-30T02:33:24.542Z,101.33
2019-01-30T02:34:28.821Z,85.67
2019-01-30T02:35:33.335Z,105.50
2019-01-30T02:36:55.828Z,108.78
2019-01-30T02:38:00.246Z,91.40
2019-01-30T02:39:07.323Z,103.53
2019-01-30T02:40:13.681Z,107.22
2019-01-30T02:41:17.961Z,102.22
2019-01-30T02:42:22.229Z,98.70
2019-01-30T02:43:26.596Z,86.82
2019-01-30T02:44:30.846Z,88.42
2019-01-30T02:45:35.111Z,95.12
2019-01-30T02:46:39.375Z,107.90
2019-01-30T02:47:43.882Z,97.02
2019-01-30T02:48:48.170Z,109.03
2019-01-30T02:49:52.441Z,101.75
2019-01-30T02:50:56.790Z,87.27
2019-01-30T02:52:01.057Z,96.00
2019-01-30T02:53:05.460Z,92.33
2019-01-30T02:54:09.812Z,82.00
2019-01-30T02:55:14.891Z,97.60
2019-01-30T02:56:19.154Z,108.72
2019-01-30T02:57:23.422Z,87.72
2019-01-30T02:58:27.698Z,100.07
2019-01-30T02:59:31.983Z,96.37
2019-01-30T03:00:37.254Z,92.45
2019-01-30T03:01:50.789Z,95.07
2019-01-30T03:02:55.122Z,83.78
2019-01-30T03:03:59.382Z,81.10
2019-01-30T03:05:05.145Z,89.10
2019-01-30T03:06:09.487Z,80.80
2019-01-30T03:07:13.982Z,89.85
2019-01-30T03:08:18.322Z,80.57
2019-01-30T03:09:22.617Z,88.97
2019-01-30T03:10:26.982Z,81.42
2019-01-30T03:11:31.314Z,94.47
2019-01-30T03:12:35.569Z,87.00
2019-01-30T03:13:39.843Z,91.87
2019-01-30T03:14:44.116Z,90.65
2019-01-30T03:15:48.382Z,85.15
2019-01-30T03:16:52.648Z,85.10
2019-01-30T03:17:56.985Z,81.97
2019-01-30T03:19:01.249Z,84.80
2019-01-30T03:20:07.132Z,94.55
2019-01-30T03:21:11.383Z,78.87
2019-01-30T03:22:15.646Z,91.02
2019-01-30T03:23:19.910Z,79.82
2019-01-30T03:24:24.176Z,86.97
2019-01-30T03:25:28.518Z,85.28
2019-01-30T03:26:32.781Z,87.82
2019-01-30T03:27:37.050Z,77.87
2019-01-30T03:28:41.333Z,82.92
2019-01-30T03:29:45.591Z,82.45
2019-01-30T03:30:49.867Z,82.95
2019-01-30T03:31:54.141Z,79.15
2019-01-30T03:32:58.613Z,65.75
2019-01-30T03:34:03.106Z,83.30
2019-01-30T03:35:07.637Z,81.25
2019-01-30T03:36:11.902Z,67.82
2019-01-30T03:37:16.161Z,80.65
2019-01-30T03:38:20.421Z,79.95
2019-01-30T03:39:24.681Z,69.62
2019-01-30T03:40:29.033Z,73.97
2019-01-30T03:41:33.374Z,75.62
2019-01-30T03:42:37.628Z,77.87
2019-01-30T03:43:41.888Z,73.90
2019-01-30T03:44:46.164Z,73.15
2019-01-30T03:45:50.438Z,71.47
2019-01-30T03:46:54.702Z,71.90
2019-01-30T03:47:58.967Z,73.87
2019-01-30T03:49:03.238Z,70.57
2019-01-30T03:50:08.682Z,74.15
2019-01-30T03:51:13.050Z,75.47
2019-01-30T03:52:17.317Z,67.92
2019-01-30T03:53:21.585Z,66.02
2019-01-30T03:54:25.845Z,64.50
2019-01-30T03:55:30.121Z,65.40
2019-01-30T03:56:34.378Z,69.30
2019-01-30T03:57:38.718Z,66.57
2019-01-30T03:58:43.072Z,71.17
2019-01-30T03:59:47.411Z,70.28
2019-01-30T04:00:51.682Z,71.60
2019-01-30T04:01:56.022Z,65.35
2019-01-30T04:03:00.761Z,66.17
2019-01-30T04:04:05.194Z,66.77
2019-01-30T04:05:09.614Z,69.97
2019-01-30T04:06:13.902Z,67.55
2019-01-30T04:07:18.163Z,60.25
2019-01-30T04:08:22.429Z,66.35
2019-01-30T04:09:26.765Z,62.95
2019-01-30T04:10:31.021Z,68.80
2019-01-30T04:11:35.303Z,62.75
2019-01-30T04:12:39.562Z,62.93
2019-01-30T04:13:43.831Z,69.40
2019-01-30T04:14:48.102Z,66.65
2019-01-30T04:15:52.377Z,72.90
2019-01-30T04:16:56.713Z,64.27
2019-01-30T04:18:00.988Z,66.07
2019-01-30T04:19:05.328Z,67.47
2019-01-30T04:20:10.433Z,64.70
2019-01-30T04:21:14.885Z,62.10
2019-01-30T04:22:19.155Z,65.28
2019-01-30T04:23:23.414Z,69.82
2019-01-30T04:24:27.691Z,68.57
2019-01-30T04:25:31.969Z,65.00
2019-01-30T04:26:36.238Z,67.25
2019-01-30T04:27:40.577Z,61.80
2019-01-30T04:28:44.845Z,66.50
2019-01-30T04:29:49.105Z,65.45
2019-01-30T04:30:53.369Z,56.88
2019-01-30T04:31:57.646Z,61.53
2019-01-30T04:33:01.927Z,75.95
2019-01-30T04:34:06.193Z,63.28
2019-01-30T04:35:10.610Z,73.60
2019-01-30T04:36:14.865Z,64.62
2019-01-30T04:37:19.142Z,68.57
2019-01-30T04:38:23.414Z,70.83
2019-01-30T04:39:27.674Z,62.98
2019-01-30T04:40:31.946Z,69.17
2019-01-30T04:41:36.336Z,67.22
2019-01-30T04:42:40.665Z,72.27
2019-01-30T04:43:44.929Z,78.52
2019-01-30T04:44:49.198Z,64.05
2019-01-30T04:45:53.462Z,67.70
2019-01-30T04:46:57.736Z,59.90
2019-01-30T04:48:02.004Z,64.77
2019-01-30T04:49:06.441Z,67.50
2019-01-30T04:50:10.862Z,66.65
2019-01-30T04:51:15.142Z,65.10
2019-01-30T04:52:19.410Z,60.55
2019-01-30T04:53:23.676Z,59.58
2019-01-30T04:54:28.024Z,65.03
2019-01-30T04:55:32.283Z,67.00
2019-01-30T04:56:36.541Z,60.58
2019-01-30T04:57:40.821Z,58.70
2019-01-30T04:58:45.089Z,61.18
2019-01-30T04:59:49.363Z,64.05
2019-01-30T05:00:53.626Z,64.55
2019-01-30T05:01:57.982Z,66.02
2019-01-30T05:03:02.242Z,63.25
2019-01-30T05:04:06.577Z,65.62
2019-01-30T05:05:11.178Z,62.48
2019-01-30T05:06:15.449Z,64.55
2019-01-30T05:07:19.719Z,64.47
2019-01-30T05:08:23.981Z,62.65
2019-01-30T05:09:28.252Z,53.20
2019-01-30T05:10:32.513Z,65.15
2019-01-30T05:11:36.784Z,64.47
2019-01-30T05:12:41.131Z,69.62
2019-01-30T05:13:45.405Z,63.45
2019-01-30T05:14:49.671Z,58.50
2019-01-30T05:15:53.939Z,64.90
2019-01-30T05:16:58.351Z,67.58
2019-01-30T05:18:02.632Z,61.55
2019-01-30T05:19:07.035Z,61.05
2019-01-30T05:20:12.521Z,60.58
2019-01-30T05:21:16.793Z,62.88
2019-01-30T05:22:21.066Z,68.28
2019-01-30T05:23:25.446Z,57.50
2019-01-30T05:24:29.699Z,58.13
2019-01-30T05:25:34.019Z,63.42
2019-01-30T05:26:38.310Z,64.47
2019-01-30T05:27:42.663Z,61.33
2019-01-30T05:28:46.936Z,65.92
2019-01-30T05:29:51.271Z,58.13
2019-01-30T05:30:55.538Z,67.27
2019-01-30T05:32:01.292Z,58.65
2019-01-30T05:33:05.938Z,64.53
2019-01-30T05:34:10.205Z,63.30
2019-01-30T05:35:14.461Z,61.20
2019-01-30T05:36:18.730Z,64.37
2019-01-30T05:37:23.011Z,61.53
2019-01-30T05:38:27.284Z,60.40
2019-01-30T05:39:31.541Z,59.85
2019-01-30T05:40:35.810Z,59.42
2019-01-30T05:41:40.085Z,69.72
2019-01-30T05:42:44.417Z,60.25
2019-01-30T05:43:48.690Z,61.55
2019-01-30T05:44:52.968Z,60.05
2019-01-30T05:45:57.225Z,60.60
2019-01-30T05:47:01.489Z,66.45
2019-01-30T05:48:05.828Z,64.85
2019-01-30T05:49:10.123Z,66.10
2019-01-30T05:50:14.607Z,61.25
2019-01-30T05:51:18.872Z,74.47
2019-01-30T05:52:23.143Z,64.55
2019-01-30T05:53:27.407Z,72.95
2019-01-30T05:54:31.678Z,62.93
2019-01-30T05:55:35.942Z,67.15
2019-01-30T05:56:40.202Z,61.92
2019-01-30T05:57:44.621Z,76.87
2019-01-30T05:58:48.910Z,63.95
2019-01-30T05:59:53.174Z,65.72
2019-01-30T06:00:57.514Z,59.45
2019-01-30T06:02:11.567Z,62.33
2019-01-30T06:03:07.829Z,59.00
2019-01-30T06:04:12.116Z,68.85
2019-01-30T06:05:16.441Z,59.40
2019-01-30T06:06:20.704Z,61.00
2019-01-30T06:07:25.066Z,56.70
2019-01-30T06:08:29.327Z,60.15
2019-01-30T06:09:33.593Z,58.50
2019-01-30T06:10:37.935Z,60.55
2019-01-30T06:11:42.274Z,58.35
2019-01-30T06:12:46.611Z,60.08
2019-01-30T06:13:50.886Z,58.73
2019-01-30T06:14:55.165Z,54.18
2019-01-30T06:15:59.435Z,57.05
2019-01-30T06:17:04.073Z,59.18
2019-01-30T06:18:08.497Z,62.93
2019-01-30T06:19:12.758Z,60.15
2019-01-30T06:20:19.417Z,56.48
2019-01-30T06:21:23.682Z,56.63
2019-01-30T06:22:27.946Z,53.35
2019-01-30T06:23:32.373Z,57.08
2019-01-30T06:24:37.200Z,58.87
2019-01-30T06:25:41.635Z,57.10
2019-01-30T06:26:46.097Z,56.50
2019-01-30T06:27:50.446Z,61.75
2019-01-30T06:28:54.715Z,54.75
2019-01-30T06:29:59.065Z,57.48
2019-01-30T06:31:03.398Z,59.67
2019-01-30T06:32:07.666Z,53.42
2019-01-30T06:33:11.929Z,49.73
2019-01-30T06:34:16.273Z,58.15
2019-01-30T06:35:20.724Z,56.95
2019-01-30T06:36:25.134Z,53.65
2019-01-30T06:37:29.397Z,54.08
2019-01-30T06:38:33.657Z,54.35
2019-01-30T06:39:37.923Z,55.50
2019-01-30T06:40:42.367Z,51.08
2019-01-30T06:41:46.626Z,49.38
2019-01-30T06:42:50.989Z,54.53
2019-01-30T06:43:55.245Z,53.28
2019-01-30T06:44:59.517Z,53.58
2019-01-30T06:46:03.878Z,62.88
2019-01-30T06:47:08.145Z,57.93
2019-01-30T06:48:12.412Z,53.15
2019-01-30T06:49:16.679Z,51.55
2019-01-30T06:50:21.106Z,52.75
2019-01-30T06:51:25.374Z,59.98
2019-01-30T06:52:29.721Z,57.62
2019-01-30T06:53:33.977Z,48.80
2019-01-30T06:54:38.254Z,49.85
2019-01-30T06:55:42.524Z,54.67
2019-01-30T06:56:46.794Z,56.90
2019-01-30T06:57:51.057Z,52.75
2019-01-30T06:58:55.398Z,52.08
2019-01-30T06:59:59.658Z,48.87
2019-01-30T07:01:04.303Z,49.38
2019-01-30T07:02:08.574Z,53.60
2019-01-30T07:03:12.911Z,48.52
2019-01-30T07:04:17.165Z,48.40
2019-01-30T07:05:21.528Z,47.23
2019-01-30T07:06:25.799Z,44.98
2019-01-30T07:07:30.070Z,44.55
2019-01-30T07:08:34.358Z,48.52
2019-01-30T07:09:38.625Z,49.03
2019-01-30T07:10:43.041Z,50.05
2019-01-30T07:11:47.318Z,53.35
2019-01-30T07:12:51.769Z,51.08
2019-01-30T07:13:56.037Z,57.90
2019-01-30T07:15:00.325Z,47.73
2019-01-30T07:16:04.709Z,48.70
2019-01-30T07:17:08.973Z,46.08
2019-01-30T07:18:13.237Z,54.40
2019-01-30T07:19:17.501Z,52.10
2019-01-30T07:20:21.870Z,51.83
2019-01-30T07:21:26.149Z,50.00
2019-01-30T07:22:30.422Z,44.77
2019-01-30T07:23:34.690Z,49.67
2019-01-30T07:24:38.954Z,45.65
2019-01-30T07:25:43.219Z,49.05
2019-01-30T07:26:47.491Z,54.98
2019-01-30T07:27:51.842Z,48.15
2019-01-30T07:28:56.097Z,56.58
2019-01-30T07:30:00.367Z,47.03
2019-01-30T07:31:04.804Z,46.75
2019-01-30T07:32:09.146Z,50.00
2019-01-30T07:33:13.409Z,45.48
2019-01-30T07:34:17.673Z,47.65
2019-01-30T07:35:22.046Z,46.60
2019-01-30T07:36:26.293Z,46.83
2019-01-30T07:37:30.559Z,47.88
2019-01-30T07:38:34.818Z,42.67
2019-01-30T07:39:39.090Z,46.83
2019-01-30T07:40:43.354Z,39.08
2019-01-30T07:41:47.645Z,51.88
2019-01-30T07:42:52.063Z,46.85
2019-01-30T07:43:56.321Z,49.03
2019-01-30T07:45:00.594Z,43.00
2019-01-30T07:46:05.231Z,42.55
2019-01-30T07:47:09.505Z,46.95
2019-01-30T07:48:13.818Z,47.38
2019-01-30T07:49:18.118Z,42.83
2019-01-30T07:50:22.535Z,38.95
2019-01-30T07:51:26.814Z,43.25
2019-01-30T07:52:32.810Z,43.78
2019-01-30T07:53:37.242Z,40.58
2019-01-30T07:54:41.514Z,45.73
2019-01-30T07:55:45.786Z,47.50
2019-01-30T07:56:50.142Z,46.98
2019-01-30T07:57:54.477Z,38.73
2019-01-30T07:58:58.750Z,43.92
2019-01-30T08:00:03.214Z,39.35
2019-01-30T08:01:07.553Z,40.63
2019-01-30T08:02:11.859Z,39.88
2019-01-30T08:03:16.126Z,38.55
2019-01-30T08:04:20.390Z,37.85
2019-01-30T08:05:24.742Z,39.00
2019-01-30T08:06:29.013Z,38.42
2019-01-30T08:07:33.294Z,39.75
2019-01-30T08:08:37.565Z,36.17
2019-01-30T08:09:41.903Z,39.70
2019-01-30T08:10:46.176Z,37.60
2019-01-30T08:11:50.461Z,35.38
2019-01-30T08:12:54.828Z,37.83
2019-01-30T08:14:01.701Z,35.70
2019-01-30T08:15:06.581Z,37.63
2019-01-30T08:16:10.870Z,36.68
2019-01-30T08:17:15.298Z,35.70
2019-01-30T08:18:19.643Z,35.13
2019-01-30T08:19:23.897Z,34.78
2019-01-30T08:20:28.328Z,34.08
2019-01-30T08:21:32.682Z,34.23
2019-01-30T08:22:37.050Z,32.25
2019-01-30T08:23:41.503Z,31.30
2019-01-30T08:24:45.969Z,32.13
2019-01-30T08:25:50.541Z,32.13
2019-01-30T08:26:54.927Z,34.78
2019-01-30T08:27:59.335Z,34.03
2019-01-30T08:29:04.115Z,30.68
2019-01-30T08:30:22.096Z,32.33
2019-01-30T08:31:18.304Z,35.00
2019-01-30T08:32:22.936Z,33.78
2019-01-30T08:33:27.278Z,33.63
2019-01-30T08:34:31.542Z,32.60
2019-01-30T08:35:36.054Z,30.55
2019-01-30T08:36:40.318Z,31.02
2019-01-30T08:37:45.983Z,30.55
2019-01-30T08:38:50.454Z,30.02
2019-01-30T08:39:54.710Z,34.10
2019-01-30T08:40:58.982Z,29.10
2019-01-30T08:42:03.253Z,28.25
2019-01-30T08:43:07.526Z,27.80
2019-01-30T08:44:11.793Z,33.13
2019-01-30T08:45:18.875Z,29.70
2019-01-30T08:46:23.138Z,32.50
2019-01-30T08:47:27.410Z,26.90
2019-01-30T08:48:31.759Z,28.23
2019-01-30T08:49:36.098Z,31.27
2019-01-30T08:50:40.505Z,33.75
2019-01-30T08:51:44.822Z,32.80
2019-01-30T08:52:49.089Z,29.85
2019-01-30T08:53:53.374Z,31.10
2019-01-30T08:54:57.705Z,28.50
2019-01-30T08:56:02.061Z,27.07
2019-01-30T08:57:06.394Z,30.97
2019-01-30T08:58:10.736Z,28.23
2019-01-30T08:59:14.993Z,29.27
2019-01-30T09:00:20.572Z,27.45
2019-01-30T09:01:24.913Z,31.75
2019-01-30T09:02:29.174Z,27.52
2019-01-30T09:03:33.437Z,29.23
2019-01-30T09:04:37.714Z,31.60
2019-01-30T09:05:42.089Z,26.45
2019-01-30T09:06:46.351Z,29.45
2019-01-30T09:07:50.610Z,26.20
2019-01-30T09:08:54.894Z,23.83
2019-01-30T09:09:59.158Z,25.75
2019-01-30T09:11:03.516Z,24.32
2019-01-30T09:12:07.806Z,27.25
2019-01-30T09:13:12.066Z,28.98
2019-01-30T09:14:16.361Z,23.02
2019-01-30T09:15:22.068Z,27.40
2019-01-30T09:16:26.328Z,29.07
2019-01-30T09:17:30.597Z,29.30
2019-01-30T09:18:34.886Z,24.43
2019-01-30T09:19:39.152Z,26.45
2019-01-30T09:20:43.418Z,27.90
2019-01-30T09:21:47.690Z,28.00
2019-01-30T09:22:52.101Z,27.27
2019-01-30T09:23:56.372Z,23.98
2019-01-30T09:25:00.629Z,28.83
2019-01-30T09:26:05.036Z,27.67
2019-01-30T09:27:12.374Z,27.62
2019-01-30T09:28:16.633Z,30.45
2019-01-30T09:29:20.918Z,26.90
2019-01-30T09:30:30.115Z,27.95
2019-01-30T09:31:34.382Z,25.30
2019-01-30T09:32:38.745Z,25.35
2019-01-30T09:33:43.017Z,28.50
2019-01-30T09:34:47.350Z,25.37
2019-01-30T09:35:51.737Z,25.62
2019-01-30T09:36:56.046Z,27.55
2019-01-30T09:38:00.342Z,27.95
2019-01-30T09:39:08.083Z,24.10
2019-01-30T09:40:13.043Z,25.05
2019-01-30T09:41:17.306Z,26.85
2019-01-30T09:42:21.565Z,25.62
2019-01-30T09:43:25.842Z,26.17
2019-01-30T09:44:30.114Z,22.65
2019-01-30T09:45:34.594Z,25.45
2019-01-30T09:46:38.887Z,26.75
2019-01-30T09:47:43.328Z,26.35
2019-01-30T09:48:47.609Z,26.55
2019-01-30T09:49:51.895Z,24.60
2019-01-30T09:50:56.247Z,22.93
2019-01-30T09:52:00.671Z,27.32
2019-01-30T09:53:06.681Z,21.82
2019-01-30T09:54:11.102Z,24.75
2019-01-30T09:55:15.578Z,24.57
2019-01-30T09:56:19.857Z,25.30
2019-01-30T09:57:24.117Z,22.22
2019-01-30T09:58:28.389Z,21.57
2019-01-30T09:59:32.679Z,24.75
2019-01-30T10:00:37.591Z,24.52
2019-01-30T10:01:41.864Z,22.55
2019-01-30T10:02:46.286Z,22.58
2019-01-30T10:03:50.537Z,21.40
2019-01-30T10:04:54.822Z,20.77
2019-01-30T10:05:59.140Z,22.50
2019-01-30T10:07:03.394Z,21.68
2019-01-30T10:08:08.682Z,25.65
2019-01-30T10:09:13.022Z,22.40
2019-01-30T10:10:19.947Z,22.45
2019-01-30T10:11:24.214Z,22.62
2019-01-30T10:12:28.487Z,21.12
2019-01-30T10:13:32.821Z,21.90
2019-01-30T10:14:37.089Z,23.27
2019-01-30T10:15:43.481Z,21.95
2019-01-30T10:16:47.765Z,22.30
2019-01-30T10:17:52.106Z,19.65
2019-01-30T10:18:56.365Z,21.52
2019-01-30T10:20:00.641Z,19.25
2019-01-30T10:21:05.160Z,20.80
2019-01-30T10:22:09.582Z,21.90
2019-01-30T10:23:14.005Z,22.45
2019-01-30T10:24:18.285Z,20.17
2019-01-30T10:25:22.634Z,19.75
2019-01-30T10:26:26.910Z,21.45
2019-01-30T10:27:31.173Z,19.92
2019-01-30T10:28:35.438Z,19.77
2019-01-30T10:29:39.701Z,20.80
2019-01-30T10:30:45.094Z,21.17
2019-01-30T10:31:49.362Z,18.35
2019-01-30T10:32:53.650Z,18.15
2019-01-30T10:33:57.919Z,20.75
2019-01-30T10:35:02.185Z,19.10
2019-01-30T10:36:06.554Z,17.12
2019-01-30T10:37:10.832Z,18.40
2019-01-30T10:38:15.357Z,17.52
2019-01-30T10:39:19.626Z,20.50
2019-01-30T10:40:24.146Z,19.98
2019-01-30T10:41:28.438Z,21.65
2019-01-30T10:42:32.701Z,17.67
2019-01-30T10:43:37.041Z,16.23
2019-01-30T10:44:41.303Z,20.68
2019-01-30T10:45:45.638Z,18.27
2019-01-30T10:46:50.006Z,20.90
2019-01-30T10:47:54.344Z,16.87
2019-01-30T10:48:58.601Z,17.87
2019-01-30T10:50:03.093Z,19.20
2019-01-30T10:51:07.570Z,17.80
2019-01-30T10:52:11.957Z,18.60
2019-01-30T10:53:16.298Z,19.92
2019-01-30T10:54:20.645Z,17.32
2019-01-30T10:55:27.334Z,18.37
2019-01-30T10:56:31.682Z,19.03
2019-01-30T10:57:36.027Z,15.48
2019-01-30T10:58:40.276Z,14.07
2019-01-30T10:59:44.531Z,14.95
2019-01-30T11:00:50.665Z,23.45
2019-01-30T11:01:55.418Z,16.73
2019-01-30T11:02:59.759Z,16.67
2019-01-30T11:04:04.367Z,17.92
2019-01-30T11:05:09.304Z,14.77
2019-01-30T11:06:13.658Z,15.58
2019-01-30T11:07:17.998Z,19.27
2019-01-30T11:08:22.328Z,15.50
2019-01-30T11:09:26.597Z,18.65
2019-01-30T11:10:30.859Z,15.97
2019-01-30T11:11:35.147Z,17.05
2019-01-30T11:12:39.409Z,17.00
2019-01-30T11:13:43.674Z,18.43
2019-01-30T11:14:47.933Z,18.45
2019-01-30T11:15:52.333Z,19.17
2019-01-30T11:16:56.716Z,16.45
2019-01-30T11:18:01.131Z,12.57
2019-01-30T11:19:05.656Z,14.77
2019-01-30T11:20:11.189Z,18.03
2019-01-30T11:21:15.527Z,15.35
2019-01-30T11:22:19.801Z,15.93
2019-01-30T11:23:24.049Z,17.70
2019-01-30T11:24:28.317Z,20.52
2019-01-30T11:25:34.355Z,18.10
2019-01-30T11:26:38.614Z,18.47
2019-01-30T11:27:42.963Z,15.67
2019-01-30T11:28:47.229Z,14.47
2019-01-30T11:29:51.477Z,16.90
2019-01-30T11:30:55.751Z,18.50
2019-01-30T11:32:00.012Z,14.83
2019-01-30T11:33:04.917Z,16.27
2019-01-30T11:34:09.254Z,15.53
2019-01-30T11:35:14.460Z,17.83
2019-01-30T11:36:18.721Z,15.27
2019-01-30T11:37:23.165Z,14.60
2019-01-30T11:38:27.497Z,15.40
2019-01-30T11:39:31.765Z,15.33
2019-01-30T11:40:36.094Z,14.33
2019-01-30T11:41:40.430Z,13.73
2019-01-30T11:42:44.702Z,15.07
2019-01-30T11:43:48.941Z,14.57
2019-01-30T11:44:53.214Z,16.32
2019-01-30T11:45:57.541Z,18.50
2019-01-30T11:47:01.873Z,14.30
2019-01-30T11:48:06.912Z,14.70
2019-01-30T11:49:11.194Z,15.00
2019-01-30T11:50:15.662Z,14.23
2019-01-30T11:51:19.917Z,14.57
2019-01-30T11:52:24.254Z,17.07
2019-01-30T11:53:28.518Z,15.27
2019-01-30T11:54:38.687Z,13.90
2019-01-30T11:55:39.140Z,13.03
2019-01-30T11:56:43.581Z,14.00
2019-01-30T11:57:48.002Z,15.80
2019-01-30T11:58:52.270Z,15.07
2019-01-30T11:59:56.543Z,15.77
2019-01-30T12:01:03.586Z,15.10
2019-01-30T12:02:08.073Z,15.63
2019-01-30T12:03:12.417Z,15.17
2019-01-30T12:04:18.039Z,14.20
2019-01-30T12:05:22.738Z,15.85
2019-01-30T12:06:26.998Z,15.63
2019-01-30T12:07:31.265Z,13.80
2019-01-30T12:08:35.533Z,12.10
2019-01-30T12:09:39.800Z,13.45
2019-01-30T12:10:44.066Z,13.63
2019-01-30T12:11:48.337Z,14.75
2019-01-30T12:12:52.741Z,15.87
2019-01-30T12:13:57.088Z,13.23
2019-01-30T12:15:01.357Z,15.93
2019-01-30T12:16:05.760Z,12.07
2019-01-30T12:17:10.014Z,12.03
2019-01-30T12:18:14.257Z,12.57
2019-01-30T12:19:18.530Z,14.07
2019-01-30T12:20:22.858Z,13.33
2019-01-30T12:21:27.133Z,16.17
2019-01-30T12:22:31.466Z,12.47
2019-01-30T12:23:35.750Z,12.25
2019-01-30T12:24:40.022Z,13.32
2019-01-30T12:25:44.360Z,15.53
2019-01-30T12:26:48.733Z,16.23
2019-01-30T12:27:53.070Z,10.83
2019-01-30T12:28:57.381Z,12.00
2019-01-30T12:30:01.713Z,11.05
2019-01-30T12:31:06.037Z,12.05
2019-01-30T12:32:10.305Z,11.63
2019-01-30T12:33:14.568Z,14.63
2019-01-30T12:34:27.872Z,12.33
2019-01-30T12:35:25.257Z,11.80
2019-01-30T12:36:29.496Z,13.43
2019-01-30T12:37:33.746Z,11.60
2019-01-30T12:38:38.026Z,13.57
2019-01-30T12:39:42.358Z,10.93
2019-01-30T12:40:46.621Z,10.40
2019-01-30T12:41:50.953Z,12.67
2019-01-30T12:42:55.298Z,12.45
2019-01-30T12:43:59.577Z,12.88
2019-01-30T12:45:04.865Z,11.67
2019-01-30T12:46:09.115Z,9.43
2019-01-30T12:47:19.832Z,8.87
2019-01-30T12:48:19.398Z,10.40
2019-01-30T12:49:23.814Z,9.93
2019-01-30T12:50:28.420Z,10.73
2019-01-30T12:51:32.665Z,9.03
2019-01-30T12:52:36.942Z,9.37
2019-01-30T12:53:41.205Z,9.80
2019-01-30T12:54:45.529Z,8.18
2019-01-30T12:55:49.780Z,8.60
2019-01-30T12:56:54.118Z,9.00
2019-01-30T12:57:58.532Z,9.90
2019-01-30T12:59:02.854Z,8.30
2019-01-30T13:00:10.458Z,8.33
2019-01-30T13:01:14.797Z,7.87
2019-01-30T13:02:19.066Z,10.03
2019-01-30T13:03:23.398Z,10.90
2019-01-30T13:04:27.653Z,8.20
2019-01-30T13:05:32.062Z,8.27
2019-01-30T13:06:36.309Z,7.77
2019-01-30T13:07:40.710Z,8.87
2019-01-30T13:08:44.953Z,9.40
2019-01-30T13:09:49.229Z,7.37
2019-01-30T13:10:53.634Z,13.33
2019-01-30T13:11:57.885Z,8.67
2019-01-30T13:13:02.245Z,10.23
2019-01-30T13:14:06.653Z,9.07
2019-01-30T13:15:12.777Z,6.53
2019-01-30T13:16:17.036Z,7.93
2019-01-30T13:17:21.288Z,7.13
2019-01-30T13:18:25.617Z,6.30
2019-01-30T13:19:29.870Z,6.70
2019-01-30T13:20:34.201Z,6.43
2019-01-30T13:21:38.514Z,8.17
2019-01-30T13:22:42.865Z,8.87
2019-01-30T13:23:47.190Z,8.53
2019-01-30T13:24:51.454Z,8.30
2019-01-30T13:25:55.861Z,6.20
2019-01-30T13:27:00.134Z,11.37
2019-01-30T13:28:04.981Z,8.53
2019-01-30T13:29:09.310Z,8.10
2019-01-30T13:30:19.553Z,8.60
2019-01-30T13:31:23.795Z,6.53
2019-01-30T13:32:28.046Z,6.33
2019-01-30T13:33:32.302Z,5.83
2019-01-30T13:34:36.546Z,7.03
2019-01-30T13:35:41.049Z,8.10
2019-01-30T13:36:45.309Z,8.20
2019-01-30T13:37:49.578Z,7.37
2019-01-30T13:38:53.843Z,7.80
2019-01-30T13:39:58.090Z,6.93
2019-01-30T13:41:02.366Z,7.97
2019-01-30T13:42:06.633Z,7.70
2019-01-30T13:43:11.129Z,7.77
2019-01-30T13:44:15.380Z,5.77
2019-01-30T13:45:19.722Z,7.33
2019-01-30T13:46:24.061Z,9.53
2019-01-30T13:47:28.313Z,5.43